Zhetygen Airport

Jump to: basic info | weather | comments

Related pages: nearby airports | nearby navaids

Basic information (top)

Location: lon 43.733101, lat 77.119400, elev 1,638 ft / 499 m msl
Status: small_airport

Weather (top)

Current conditions for Almaty Airport 23nm (43km) S (rec'd 2014/11/24 08:30Z):

UAAA 240830Z 26004MPS 4200 FU SCT050 OVC100 06/M02 Q1012 R88/65D NOSIG

Airport forecast for Almaty Airport 23nm (43km) S (rec'd 2014/11/24 06:18Z):

TAF TAF UAAA 240500Z 2406/2506 24008MPS 3000 SHRA BR BKN030CB BKN100 TX04/2406Z TNM05/2501Z 
      TEMPO 2406/2416 30018MPS 1000 BKN010CB OVC100 
      BECMG 2416/2417 32010MPS 1000 SHSN BKN005 OVC010CB 
      TEMPO 2416/2506 0300 SN FZFG VV002

Latest comments (top)

No comments yet for Zhetygen Airport

More... (top)

See also NOTAMs and nearby airports and navaids, or visit the Zhetygen Airport page at the main OurAirports website..